Krabi, Thailand

8:05 PM ICT on May 22, 2015 (GMT +0700)
Ao Nang, Krabi | | Change Station
CLOSE
Current Station
Personal Weather Station
Location: Ao Nang, Krabi
Elevation: 177 ft
Nearby Weather Stations

Elev 177 ft 8.05 °N, 98.84 °E | Updated 5 seconds ago

Mostly Cloudy
Mostly Cloudy
80.2 °F
Feels Like 85 °F
N
0.0
Wind Variable Wind from North
Gusts 0.0 mph

Today
High -- | Low -- °F
--% Chance of Precip.
Yesterday
High -- | Low -- °F
Precip. -- in
6:05 AM 6:36 PM
Waxing Crescent, 21% visible
Pressure 29.83 in
Visibility 6.2 miles
Clouds Few 2500 ft
Mostly Cloudy 30000 ft
Heat Index 85 °F
Dew Point 75 °F
Humidity 85%
Rainfall 0.02 in
Snow Depth Not available.
UV 0.0 out of 12
Pollen Not available.
Air Quality Not available.
Flu Activity Not available.
METAR VTSP 221230Z 28010KT 9999 FEW025 BKN300 29/22 Q1010 A2984 NOSIG

More Conditions Fewer Conditions

Pressure 29.83 in
Visibility 6.2 miles
Clouds Few 2500 ft
Mostly Cloudy 30000 ft
Heat Index 85 °F
Dew Point 75 °F
Humidity 85%
Rainfall 0.02 in
Snow Depth Not available.
UV 0.0 out of 12
Pollen Not available.
Air Quality Not available.
Flu Activity Not available.
METAR VTSP 221230Z 28010KT 9999 FEW025 BKN300 29/22 Q1010 A2984 NOSIG

More Conditions Fewer Conditions

10-Day Weather Forecast

Almanac

Astronomy

May. 22, 2015 Rise Set
Actual Time
Civil Twilight
Nautical Twilight
Astronomical Twilight
Moon
Length of Visible Light
Length of Day
Tomorrow will be .
, % of the Moon is Illuminated

Today's Extremes

Country Highs Country Lows

Community

WunderPhotos

Upload Photos

1,823,210 photos uploaded!

WunderBlogs® & News

Nearby

Air Quality

  Air Quality AQ Index Pollutant
Not available.

Snow Depth

Station Depth Elevation

Earthquake Activity

City Distance Mag. Time & Date
Minimum magnitude displayed is 2.5.

Coastal Water Temperatures

Place Temperature

Stations

Nearby Weather Stations

Station Location Temp. Windchill Dew Point Humidity Wind Precip. Elev Updated Type